Flight Track Log - Related Links

Times and Time Zones

All times are in EDT time to prevent confusion due to time zone crossing. See the JBU767 flight status page for this flight to view local times or setup timezone preferences in your user account.

Time Position Orientation Groundspeed Altitude Reporting Facility
EDT Latitude Longitude Course Direction KTS MPH feet Rate Location/Type
Sun 11:33:31 PM 28.4333 -81.3000 129° Southeast 165 190 600  Level Orlando TRACON
Sun 11:34:49 PM 28.4500 -81.2333 74° East 231 266 2,700 2,348 Climbing Orlando TRACON
Sun 11:35:49 PM 28.4167 -81.1833 127° Southeast 226 260 6,000 3,150 Climbing Orlando TRACON
Sun 11:36:00 PM 25.7362 -78.4342 122° Southeast  Level FlightAware Approximate
Sun 11:36:49 PM 28.3667 -81.1333 139° Southeast 230 265 9,000  Level Orlando TRACON
Sun 11:37:00 PM 25.6731 -78.3400 129° Southeast  Level FlightAware Approximate
Sun 11:37:05 PM 28.3606 -81.1172 113° Southeast 230 265 9,300  Level Miami Center
Sun 11:38:00 PM 25.6066 -78.2486 129° Southeast  Level FlightAware Approximate
Sun 11:38:04 PM 28.3183 -81.0636 132° Southeast 255 293 11,900  Level Miami Center
Sun 11:39:03 PM 28.2661 -80.9958 131° Southeast 250 288 14,500 1,750 Climbing Miami Center
Sun 11:40:04 PM 28.2206 -80.9142 122° Southeast 290 334 15,400 1,190 Climbing Miami Center
Sun 11:41:04 PM 28.1744 -80.8394 125° Southeast 340 391 16,900 1,600 Climbing Miami Center
Sun 11:42:04 PM 28.1128 -80.7314 123° Southeast 363 418 18,600 1,815 Climbing Miami Center
Sun 11:43:03 PM 28.0508 -80.6281 124° Southeast 377 434 20,500 1,765 Climbing Miami Center
Sun 11:44:03 PM 28.0100 -80.5114 112° Southeast 387 445 22,100 1,623 Climbing Miami Center
Sun 11:45:05 PM 27.9714 -80.3856 109° East 414 476 23,800 1,623 Climbing Miami Center
Sun 11:46:05 PM 27.9347 -80.2600 108° East 419 482 25,400 1,500 Climbing Miami Center
Sun 11:47:05 PM 27.8942 -80.1178 108° East 432 497 26,800 1,169 Climbing Miami Center
Sun 11:48:03 PM 27.8297 -80.0150 125° Southeast 432 497 27,700 1,091 Climbing Miami Center
Sun 11:49:06 PM 27.7592 -79.8981 124° Southeast 438 504 29,000 1,190 Climbing Miami Center
Sun 11:50:04 PM 27.6883 -79.7836 125° Southeast 447 514 30,100 864 Climbing Miami Center
Sun 11:51:04 PM 27.6389 -79.6464 112° Southeast 467 537 30,700 958 Climbing Miami Center
Sun 11:52:03 PM 27.6108 -79.4817 101° East 473 544 32,000 1,109 Climbing Miami Center
Sun 11:53:03 PM 27.5819 -79.3333 102° East 479 551 32,900 1,024 Climbing Miami Center
Sun 11:54:06 PM 27.5428 -79.1897 107° East 474 545 34,100 934 Climbing Miami Center
Sun 11:55:05 PM 27.4881 -79.0667 117° Southeast 484 557 34,800 915 Climbing Miami Center
Sun 11:56:04 PM 27.4003 -78.9364 127° Southeast 477 549 35,900 1,100 Climbing Miami Center
Sun 11:57:05 PM 27.3269 -78.8133 124° Southeast 477 549 37,000 550 Climbing Miami Center
Sun 11:58:04 PM 27.2489 -78.7000 128° Southeast 472 543 37,000  Level Miami Center
Sun 11:59:03 PM 27.1792 -78.5914 126° Southeast 472 543 37,000  Level Miami Center
Mon 12:00:04 AM 27.0992 -78.4783 128° Southeast 472 543 37,000  Level Miami Center
Mon 12:01:06 AM 27.0147 -78.3536 127° Southeast 466 536 37,000  Level Miami Center
Mon 12:02:03 AM 26.9386 -78.2383 127° Southeast 460 529 37,000  Level Miami Center
Mon 12:03:03 AM 26.8603 -78.1211 127° Southeast 465 535 37,000  Level Miami Center
Mon 12:04:05 AM 26.7797 -78.0036 128° Southeast 471 542 37,000  Level Miami Center
Mon 12:05:04 AM 26.7014 -77.8844 126° Southeast 478 550 37,000  Level Miami Center
Mon 12:06:04 AM 26.6228 -77.7722 128° Southeast 471 542 37,000  Level Miami Center
Mon 12:07:05 AM 26.5419 -77.6531 127° Southeast 471 542 37,000  Level Miami Center
Mon 12:08:05 AM 26.4631 -77.5319 126° Southeast 471 542 37,000  Level Miami Center
Mon 12:09:04 AM 26.3906 -77.4294 128° Southeast 476 548 37,000  Level Miami Center
Mon 12:10:03 AM 26.3094 -77.3108 127° Southeast 476 548 37,000  Level Miami Center
Mon 12:11:05 AM 26.2303 -77.1969 128° Southeast 476 548 37,000  Level Miami Center
Mon 12:12:04 AM 26.1489 -77.0764 127° Southeast 476 548 37,000  Level Miami Center
Mon 12:13:03 AM 26.0675 -76.9606 128° Southeast 470 541 37,000  Level Miami Center
Mon 12:14:05 AM 25.9861 -76.8447 128° Southeast 470 541 37,000  Level Miami Center
Mon 12:15:05 AM 25.8878 -76.7503 139° Southeast 470 541 37,000  Level Miami Center
Mon 12:16:03 AM 25.7894 -76.6533 138° Southeast 470 541 37,000  Level Miami Center
Mon 12:17:06 AM 25.6869 -76.5567 140° Southeast 470 541 37,000  Level Miami Center
Mon 12:18:04 AM 25.5906 -76.4625 139° Southeast 470 541 37,000  Level Miami Center
Mon 12:19:06 AM 25.4942 -76.3661 138° Southeast 470 541 37,000  Level Miami Center
Mon 12:20:04 AM 25.4019 -76.2606 134° Southeast 470 541 37,000  Level Miami Center
Mon 12:21:03 AM 25.3197 -76.1461 128° Southeast 469 540 37,000  Level Miami Center
Mon 12:22:05 AM 25.2439 -76.0292 126° Southeast 469 540 37,000  Level Miami Center
Mon 12:23:05 AM 25.1617 -75.9128 128° Southeast 474 545 37,000  Level Miami Center
Mon 12:24:06 AM 25.0794 -75.7964 128° Southeast 479 551 37,000  Level Miami Center
Mon 12:25:04 AM 24.9886 -75.6689 128° Southeast 479 551 37,000  Level Miami Center
Mon 12:26:05 AM 24.9061 -75.5528 128° Southeast 479 551 37,000  Level Miami Center
Mon 12:27:05 AM 24.8236 -75.4322 127° Southeast 485 558 37,000  Level Miami Center
Mon 12:28:06 AM 24.7408 -75.3167 128° Southeast 485 558 37,000  Level Miami Center
Mon 12:29:06 AM 24.6581 -75.1964 127° Southeast 485 558 37,000  Level Miami Center
Mon 12:30:04 AM 24.5753 -75.0811 128° Southeast 485 558 37,000  Level Miami Center
Mon 12:31:03 AM 24.4922 -74.9611 127° Southeast 485 558 37,000  Level Miami Center
Mon 12:32:03 AM 24.4092 -74.8439 128° Southeast 485 558 37,000  Level Miami Center
Mon 12:33:03 AM 24.3239 -74.7267 129° Southeast 485 558 37,000  Level Miami Center
Mon 12:34:03 AM 24.2408 -74.6117 128° Southeast 485 558 37,000  Level Miami Center
Mon 12:35:04 AM 24.1594 -74.4947 127° Southeast 485 558 37,000  Level Miami Center
Mon 12:36:05 AM 24.0719 -74.3758 129° Southeast 485 558 37,000  Level Miami Center
Mon 12:37:05 AM 23.9883 -74.2617 129° Southeast 485 558 37,000  Level Miami Center
Mon 12:38:06 AM 23.9028 -74.1453 129° Southeast 485 558 37,000  Level Miami Center
Mon 12:39:05 AM 23.8192 -74.0244 127° Southeast 485 558 37,000  Level Miami Center
Mon 12:40:04 AM 23.7333 -73.9061 128° Southeast 485 558 37,000  Level Miami Center
Mon 12:41:06 AM 23.6494 -73.7922 129° Southeast 485 558 37,000  Level Miami Center
Mon 12:42:03 AM 23.5614 -73.6744 129° Southeast 491 565 37,000  Level Miami Center
Mon 12:43:03 AM 23.4753 -73.5564 128° Southeast 491 565 37,000  Level Miami Center
Mon 12:44:04 AM 23.3911 -73.4386 128° Southeast 496 571 37,000  Level Miami Center
Mon 12:45:04 AM 23.2986 -73.3214 131° Southeast 496 571 37,000  Level Miami Center
Mon 12:46:04 AM 23.2142 -73.2039 128° Southeast 496 571 37,000  Level Miami Center
Mon 12:47:04 AM 23.1386 -73.1022 129° Southeast 491 565 37,000  Level Miami Center
Mon 12:48:06 AM 23.0542 -72.9828 128° Southeast 491 565 37,000  Level Miami Center
Mon 12:49:05 AM 22.9631 -72.8547 128° Southeast 491 565 37,000  Level Miami Center
Mon 12:50:05 AM 22.8744 -72.7403 130° Southeast 491 565 37,000  Level Miami Center
Mon 12:51:05 AM 22.7919 -72.6236 127° Southeast 485 558 37,000  Level Miami Center
Mon 12:52:04 AM 22.7050 -72.5072 129° Southeast 485 558 37,000  Level Miami Center
Mon 12:53:03 AM 22.6203 -72.3908 128° Southeast 490 564 37,000  Level Miami Center
Mon 12:54:04 AM 22.5333 -72.2792 130° Southeast 490 564 37,000  Level Miami Center
Mon 12:55:04 AM 22.4483 -72.1631 128° Southeast 485 558 37,000  Level Miami Center
Mon 12:56:05 AM 22.3633 -72.0494 129° Southeast 485 558 37,000  Level Miami Center
Mon 12:57:05 AM 22.2806 -71.9383 129° Southeast 485 558 37,000  Level Miami Center
Mon 12:58:06 AM 22.1933 -71.8250 130° Southeast 485 558 37,000  Level Miami Center
Mon 12:59:03 AM 22.1081 -71.7117 129° Southeast 485 558 37,000  Level Miami Center
Mon 01:00:05 AM 22.0208 -71.5989 130° Southeast 485 558 37,000  Level Miami Center
Mon 01:01:04 AM 21.9356 -71.4836 129° Southeast 485 558 37,000  Level Miami Center
Mon 01:02:04 AM 21.8500 -71.3708 129° Southeast 485 558 37,000  Level Miami Center
Mon 01:03:03 AM 21.7644 -71.2561 129° Southeast 485 558 37,000  Level Miami Center
Mon 01:04:03 AM 21.6789 -71.1392 128° Southeast 490 564 37,000  Level Miami Center
Mon 01:05:03 AM 21.6064 -71.0464 130° Southeast 490 564 37,000  Level Miami Center
Mon 01:06:03 AM 21.5078 -70.9192 130° Southeast 502 578 37,000  Level Miami Center
Mon 01:07:04 AM 21.4178 -70.8050 130° Southeast 507 583 37,000  Level Miami Center
Mon 01:08:03 AM 21.3278 -70.6911 130° Southeast 507 583 37,000  Level Miami Center
Mon 01:09:03 AM 21.2378 -70.5797 131° Southeast 502 578 37,000  Level Miami Center
Mon 01:10:03 AM 21.1539 -70.4681 129° Southeast 496 571 37,000  Level Miami Center
Mon 01:11:03 AM 21.0661 -70.3589 131° Southeast 496 571 37,000  Level Miami Center
Mon 01:12:04 AM 20.9800 -70.2478 130° Southeast 496 571 37,000  Level Miami Center
Mon 01:13:03 AM 20.8919 -70.1367 130° Southeast 496 571 37,000  Level Miami Center
Mon 01:14:04 AM 20.8056 -70.0256 130° Southeast 496 571 37,000  Level Miami Center
Mon 01:15:06 AM 20.7175 -69.9150 130° Southeast 491 565 37,000  Level Miami Center
Mon 01:16:06 AM 20.6314 -69.8064 130° Southeast 491 565 37,000  Level Miami Center
Mon 01:17:03 AM 20.5431 -69.6983 131° Southeast 491 565 37,000  Level Miami Center
Mon 01:18:04 AM 20.4586 -69.5856 129° Southeast 491 565 37,000  Level Miami Center
Mon 01:19:05 AM 20.3744 -69.4794 130° Southeast 486 559 37,000  Level Miami Center
Mon 01:20:03 AM 20.2881 -69.3694 130° Southeast 486 559 37,000  Level Miami Center
Mon 01:21:05 AM 20.2017 -69.2614 130° Southeast 486 559 37,000  Level Miami Center
Mon 01:22:03 AM 20.1131 -69.1539 131° Southeast 486 559 37,000  Level Miami Center
Mon 01:23:04 AM 20.0264 -69.0464 131° Southeast 486 559 37,000  Level Miami Center
Mon 01:24:03 AM 19.9419 -68.9367 129° Southeast 481 554 37,000  Level Miami Center
Mon 01:25:03 AM 19.8533 -68.8297 131° Southeast 481 554 37,000  Level Miami Center
Mon 01:26:05 AM 19.7578 -68.7142 131° Southeast 481 554 37,000  Level Miami Center
Mon 01:27:06 AM 19.6797 -68.6156 130° Southeast 486 559 37,000  Level Miami Center
Mon 01:28:02 AM 19.6000 -68.5000 126° Southeast 490 564 37,000 -52 Level San Juan Center
Mon 01:29:02 AM 19.5167 -68.3833 127° Southeast 480 552 36,900 -496 Descending San Juan Center
Mon 01:30:03 AM 19.4167 -68.2833 137° Southeast 480 552 36,000 -942 Descending San Juan Center
Mon 01:31:03 AM 19.3333 -68.1667 127° Southeast 490 564 35,000 -1,000 Descending San Juan Center
Mon 01:32:03 AM 19.2500 -68.0667 131° Southeast 480 552 34,000 -942 Descending San Juan Center
Mon 01:33:04 AM 19.1667 -67.9500 127° Southeast 480 552 33,100 -1,041 Descending San Juan Center
Mon 01:34:04 AM 19.0667 -67.8500 137° Southeast 470 541 31,900 -1,300 Descending San Juan Center
Mon 01:35:04 AM 18.9833 -67.7500 131° Southeast 450 518 30,500 -1,488 Descending San Juan Center
Mon 01:36:05 AM 18.9000 -67.6667 137° Southeast 440 506 28,900 -1,636 Descending San Juan Center
Mon 01:37:05 AM 18.8167 -67.5833 137° Southeast 420 483 27,200 -1,650 Descending San Juan Center
Mon 01:38:05 AM 18.7333 -67.5000 137° Southeast 410 472 25,600 -1,686 Descending San Juan Center
Mon 01:39:06 AM 18.6500 -67.4167 137° Southeast 400 460 23,800 -1,587 Descending San Juan Center
Mon 01:40:06 AM 18.5667 -67.3333 137° Southeast 390 449 22,400 -1,750 Descending San Juan Center
Mon 01:41:06 AM 18.5000 -67.2667 137° Southeast 350 403 20,300 -1,934 Descending San Juan Center
Mon 01:42:07 AM 18.4333 -67.2000 137° Southeast 340 391 18,500 -1,983 Descending San Juan Center
Mon 01:43:07 AM 18.3500 -67.1167 136° Southeast 330 380 16,300 -1,900 Descending San Juan Center
Mon 01:44:07 AM 18.3000 -67.0500 128° Southeast 310 357 14,700 -1,736 Descending San Juan Center
Mon 01:45:08 AM 18.2333 -67.0000 145° Southeast 290 334 12,800 -1,636 Descending San Juan Center
Mon 01:46:08 AM 18.1833 -66.9333 128° Southeast 290 334 11,400 -1,500 Descending San Juan Center
Mon 01:47:08 AM 18.1167 -66.8833 145° Southeast 270 311 9,800 -1,400 Descending San Juan Center
Mon 01:48:08 AM 18.0667 -66.8167 128° Southeast 280 322 8,600 -1,240 Descending San Juan Center
Mon 01:49:09 AM 18.0167 -66.7667 136° Southeast 260 299 7,300 -1,240 Descending San Juan Center
Mon 01:50:09 AM 17.9667 -66.7167 136° Southeast 260 299 6,100 -750 Descending San Juan Center
Mon 01:51:09 AM 17.9167 -66.6667 136° Southeast 240 276 5,800 -198 Descending San Juan Center
Mon 01:52:10 AM 17.8667 -66.6167 136° Southeast 220 253 5,700 -645 Descending San Juan Center
Mon 01:53:10 AM 17.8667 -66.5667 90° East 220 253 4,500 -1,100 Descending San Juan Center
Mon 01:54:10 AM 17.8500 -66.5000 105° East 210 242 3,500 -793 Descending San Juan Center
Mon 01:55:11 AM 17.8500 -66.4333 90° East 210 242 2,900 -298 Descending San Juan Center
Mon 01:56:11 AM 17.8667 -66.4000 62° Northeast 190 219 2,900  Level San Juan Center
Mon 01:57:11 AM 17.9167 -66.4000 360° North 200 230 2,900 -347 Level San Juan Center
Mon 01:58:12 AM 17.9500 -66.4333 316° Northwest 200 230 2,200 -843 Descending San Juan Center
Mon 01:59:12 AM 17.9833 -66.4833 305° West 160 184 1,200 -1,000 Descending San Juan Center

Login

Don't have an account? Register now (free) for customized features, flight alerts, and more!